Boyes, Montana
Current Conditions -  °F | °C
As of 3:53 PM on Friday 19 Dec 2014 (Local Time) from KGCC Reporting Station
Broken Clouds Broken Clouds  
Wind Chill: 25°   Ceiling: 6500
Heat Index: 33°   Visibility: 10mi
Dew Point: 22°   Wind: 9mph
Humidity: 64%   Direction: 220°SW
Pressure: 29.9"   Gusts: NA
Location:  45.27°N, 105.03°W
Report Text: KGCC 192253Z AUTO 22008KT 10SM BKN065 01/M06 A2990 RMK AO2 SLP164 T00061056 TSNO
Loading
Personal Weather Stations






























Interactive Weather Map New forecast layout! Learn more

10-Day Weather Forecast

Advertisements
Track Severe Weather on mobile